Pagrindinis puslapis
METAR-TAF:

METAR-TAF

Oro uostai :

Olesiundas, Norvegija

platuma: 62-34N, ilguma: 006-07E, Aukštis: 2 m

Dabartinis oras

Ataskaita buvo paskelbta 11 minutes, ne 20:50 UTC
Vėjas 5 kt iš Pietryčių, svyruoja nuo Rytų/Pietryčių ir Pietų
Temperatūra 15°C
Drėgmė 82%
Slėgis 993 hPa
Matomumas 10 km arba daugiau
Mažai debesys ne aukštis 5100 ft

METAR: ENAL 172050Z 14005KT 110V170 9999 FEW051 15/12 Q0993

Laikas: 23:01 (21:01 UTC)

Prognozė

Ataskaita buvo paskelbta 4 valandos ir 1 minutes, ne 17:00 UTC
Prognozė galioja nuo 17 metu 18 UTC su 17 metu 21 UTC
Vėjas 5 kt nuo kintamojo kryptimis
Matomumas 10 km arba daugiau
Mažai debesys ne aukštis 4000 ft
Su prošvaistėmis ne aukštis 6000 ft
Tikimybė 40% :
Laikinai
nuo 17 metu 18 UTC su 17 metu 21 UTC
Vėjas 12 kt iš Pietų
Su prošvaistėmis ne aukštis 3000 ft, Liūtiniai kamuoliniai debesys.
lietus

TAF: ENAL 171700Z 1718/1721 VRB05KT 9999 FEW040 BKN060 PROB40 TEMPO 1718/1721 18012KT SHRA BKN030CB

Orai ataskaitas ir orų prognozės (METAR, TAF).

turimą stotys yra geltonos ir raudonos taškus žemėlapyje.

Perkelti pele per norėdami pamatyti stoties vardą.

Tada spustelėkite, norėdami matyti oro stebėjimo ir prognozės.

Norėdami pakeisti žemėlapį: spustelėkite ant žalios mygtukų su juodo kryžiaus žemyn,; žalią mygtuką su brūkšneliu, jei norite nutolinti; arba žalių rodyklių gretimoms žemėlapius.


METAR-TAF: